createdAt,value
2018-07-30T00:00:45.860Z,101126.72
2018-07-30T00:03:14.945Z,101129.10
2018-07-30T00:05:43.650Z,101124.14
2018-07-30T00:08:12.471Z,101125.91
2018-07-30T00:10:41.450Z,101137.97
2018-07-30T00:13:10.247Z,101134.59
2018-07-30T00:15:38.979Z,101132.22
2018-07-30T00:18:07.806Z,101133.78
2018-07-30T00:20:36.830Z,101131.80
2018-07-30T00:23:05.572Z,101133.75
2018-07-30T00:25:34.331Z,101135.52
2018-07-30T00:28:03.437Z,101135.09
2018-07-30T00:30:32.182Z,101140.02
2018-07-30T00:33:01.615Z,101136.86
2018-07-30T00:35:30.430Z,101137.81
2018-07-30T00:37:59.761Z,101132.07
2018-07-30T00:40:28.470Z,101129.48
2018-07-30T00:42:57.258Z,101135.61
2018-07-30T00:45:26.496Z,101140.36
2018-07-30T00:47:55.990Z,101140.15
2018-07-30T00:50:25.226Z,101139.34
2018-07-30T00:52:53.971Z,101138.94
2018-07-30T00:55:22.962Z,101135.75
2018-07-30T00:57:52.078Z,101138.33
2018-07-30T01:00:21.341Z,101139.89
2018-07-30T01:02:50.108Z,101142.23
2018-07-30T01:05:19.162Z,101136.87
2018-07-30T01:07:47.954Z,101142.78
2018-07-30T01:10:17.041Z,101135.27
2018-07-30T01:12:45.746Z,101143.34
2018-07-30T01:15:14.895Z,101136.81
2018-07-30T01:17:44.555Z,101137.98
2018-07-30T01:20:13.527Z,101139.37
2018-07-30T01:22:42.566Z,101137.39
2018-07-30T01:25:12.255Z,101140.16
2018-07-30T01:27:41.591Z,101141.35
2018-07-30T01:30:10.738Z,101146.66
2018-07-30T01:32:39.890Z,101140.14
2018-07-30T01:35:14.994Z,101142.69
2018-07-30T01:37:44.118Z,101148.61
2018-07-30T01:40:12.867Z,101148.14
2018-07-30T01:42:41.602Z,101144.17
2018-07-30T01:45:10.618Z,101143.95
2018-07-30T01:47:39.826Z,101142.58
2018-07-30T01:50:08.845Z,101143.95
2018-07-30T01:52:41.647Z,101156.78
2018-07-30T01:55:10.511Z,101159.36
2018-07-30T01:57:39.837Z,101156.39
2018-07-30T02:00:08.908Z,101160.74
2018-07-30T02:02:42.619Z,101155.57
2018-07-30T02:05:14.156Z,101155.95
2018-07-30T02:07:43.779Z,101160.10
2018-07-30T02:10:12.901Z,101159.10
2018-07-30T02:12:42.213Z,101166.61
2018-07-30T02:15:11.286Z,101159.27
2018-07-30T02:17:40.663Z,101161.64
2018-07-30T02:20:09.519Z,101165.57
2018-07-30T02:22:38.411Z,101172.65
2018-07-30T02:25:08.566Z,101175.58
2018-07-30T02:27:37.645Z,101173.98
2018-07-30T02:30:07.855Z,101175.53
2018-07-30T02:32:37.105Z,101176.34
2018-07-30T02:35:07.973Z,101179.84
2018-07-30T02:37:37.546Z,101182.42
2018-07-30T02:40:08.387Z,101181.77
2018-07-30T02:42:37.126Z,101176.63
2018-07-30T02:45:06.852Z,101182.53
2018-07-30T02:47:35.546Z,101187.63
2018-07-30T02:50:04.897Z,101179.34
2018-07-30T02:52:34.109Z,101176.39
2018-07-30T02:55:03.765Z,101172.41
2018-07-30T02:57:33.928Z,101173.37
2018-07-30T03:00:02.711Z,101171.93
2018-07-30T03:02:31.575Z,101174.52
2018-07-30T03:05:00.412Z,101182.80
2018-07-30T03:07:29.214Z,101178.44
2018-07-30T03:09:58.394Z,101179.38
2018-07-30T03:12:27.183Z,101176.22
2018-07-30T03:14:56.035Z,101181.31
2018-07-30T03:17:24.795Z,101188.00
2018-07-30T03:19:53.554Z,101186.44
2018-07-30T03:22:22.327Z,101185.22
2018-07-30T03:24:51.290Z,101191.31
2018-07-30T03:27:20.462Z,101197.21
2018-07-30T03:29:49.466Z,101199.75
2018-07-30T03:32:18.245Z,101209.02
2018-07-30T03:34:46.966Z,101207.80
2018-07-30T03:37:15.753Z,101217.03
2018-07-30T03:39:45.633Z,101209.94
2018-07-30T03:42:14.443Z,101211.27
2018-07-30T03:44:43.738Z,101207.25
2018-07-30T03:47:12.766Z,101212.94
2018-07-30T03:49:41.818Z,101212.72
2018-07-30T03:52:10.574Z,101215.86
2018-07-30T03:54:39.602Z,101217.23
2018-07-30T03:57:08.303Z,101219.59
2018-07-30T03:59:37.258Z,101209.87
2018-07-30T04:02:06.828Z,101209.21
2018-07-30T04:04:35.888Z,101213.33
2018-07-30T04:07:05.451Z,101208.97
2018-07-30T04:09:34.497Z,101215.44
2018-07-30T04:12:03.255Z,101223.52
2018-07-30T04:14:32.031Z,101221.70
2018-07-30T04:17:01.132Z,101228.39
2018-07-30T04:19:29.894Z,101222.46
2018-07-30T04:21:58.661Z,101228.92
2018-07-30T04:24:27.627Z,101239.77
2018-07-30T04:26:56.588Z,101225.53
2018-07-30T04:29:25.354Z,101215.88
2018-07-30T04:31:54.136Z,101206.81
2018-07-30T04:34:23.938Z,101208.53
2018-07-30T04:36:52.668Z,101205.43
2018-07-30T04:39:21.415Z,101215.09
2018-07-30T04:41:50.177Z,101216.03
2018-07-30T04:44:18.908Z,101223.30
2018-07-30T04:46:47.613Z,101227.39
2018-07-30T04:49:16.463Z,101227.32
2018-07-30T04:51:45.200Z,101231.45
2018-07-30T04:54:14.189Z,101239.39
2018-07-30T04:56:42.987Z,101237.20
2018-07-30T04:59:11.984Z,101248.68
2018-07-30T05:01:40.969Z,101234.22
2018-07-30T05:04:10.208Z,101237.58
2018-07-30T05:06:39.435Z,101233.06
2018-07-30T05:09:09.174Z,101229.73
2018-07-30T05:11:38.468Z,101228.39
2018-07-30T05:14:07.512Z,101234.50
2018-07-30T05:16:36.239Z,101236.98
2018-07-30T05:19:05.168Z,101232.66
2018-07-30T05:21:34.431Z,101239.17
2018-07-30T05:24:03.549Z,101246.48
2018-07-30T05:26:33.021Z,101249.69
2018-07-30T05:29:01.799Z,101245.61
2018-07-30T05:31:30.727Z,101248.47
2018-07-30T05:34:00.173Z,101255.05
2018-07-30T05:36:28.975Z,101254.96
2018-07-30T05:38:58.088Z,101254.98
2018-07-30T05:41:27.244Z,101256.27
2018-07-30T05:43:56.268Z,101256.96
2018-07-30T05:46:25.526Z,101256.30
2018-07-30T05:48:54.751Z,101258.58
2018-07-30T05:51:24.118Z,101264.81
2018-07-30T05:53:53.149Z,101255.47
2018-07-30T05:56:21.918Z,101258.91
2018-07-30T05:58:50.667Z,101258.45
2018-07-30T06:01:19.431Z,101256.41
2018-07-30T06:03:48.190Z,101263.44
2018-07-30T06:06:17.337Z,101269.72
2018-07-30T06:08:46.162Z,101264.23
2018-07-30T06:11:14.892Z,101270.05
2018-07-30T06:13:43.810Z,101271.49
2018-07-30T06:16:12.542Z,101270.77
2018-07-30T06:18:41.266Z,101269.09
2018-07-30T06:21:09.973Z,101265.42
2018-07-30T06:23:39.421Z,101271.06
2018-07-30T06:26:08.170Z,101264.41
2018-07-30T06:28:36.869Z,101270.45
2018-07-30T06:31:05.933Z,101273.34
2018-07-30T06:33:34.644Z,101276.19
2018-07-30T06:36:03.678Z,101274.45
2018-07-30T06:38:32.551Z,101285.21
2018-07-30T06:41:01.410Z,101291.64
2018-07-30T06:43:30.551Z,101295.34
2018-07-30T06:45:59.266Z,101287.14
2018-07-30T06:48:28.139Z,101294.15
2018-07-30T06:50:57.112Z,101293.83
2018-07-30T06:53:25.882Z,101291.73
2018-07-30T06:55:54.615Z,101292.52
2018-07-30T06:58:23.355Z,101301.49
2018-07-30T07:00:52.130Z,101304.25
2018-07-30T07:03:21.156Z,101302.67
2018-07-30T07:05:49.788Z,101315.76
2018-07-30T07:08:19.027Z,101317.77
2018-07-30T07:10:48.043Z,101313.19
2018-07-30T07:13:16.810Z,101315.97
2018-07-30T07:15:45.554Z,101314.39
2018-07-30T07:18:14.533Z,101310.84
2018-07-30T07:20:44.131Z,101312.41
2018-07-30T07:23:13.296Z,101314.80
2018-07-30T07:25:42.115Z,101320.19
2018-07-30T07:28:10.787Z,101312.66
2018-07-30T07:30:39.596Z,101313.25
2018-07-30T07:33:08.390Z,101310.67
2018-07-30T07:35:37.090Z,101307.30
2018-07-30T07:38:06.028Z,101313.64
2018-07-30T07:40:40.989Z,101318.27
2018-07-30T07:43:10.397Z,101313.50
2018-07-30T07:45:39.162Z,101317.89
2018-07-30T07:48:07.880Z,101319.46
2018-07-30T07:50:37.035Z,101314.06
2018-07-30T07:53:05.984Z,101314.60
2018-07-30T07:55:35.039Z,101315.31
2018-07-30T07:58:04.401Z,101316.64
2018-07-30T08:00:33.401Z,101321.73
2018-07-30T08:03:02.457Z,101320.49
2018-07-30T08:05:31.220Z,101313.12
2018-07-30T08:07:59.963Z,101317.64
2018-07-30T08:10:34.910Z,101310.30
2018-07-30T08:13:03.621Z,101316.25
2018-07-30T08:15:32.911Z,101312.26
2018-07-30T08:18:02.502Z,101314.72
2018-07-30T08:20:31.498Z,101317.92
2018-07-30T08:23:00.439Z,101317.14
2018-07-30T08:25:29.207Z,101321.45
2018-07-30T08:27:58.296Z,101326.17
2018-07-30T08:30:27.367Z,101317.52
2018-07-30T08:32:56.206Z,101323.35
2018-07-30T08:35:25.009Z,101327.04
2018-07-30T08:37:53.977Z,101331.55
2018-07-30T08:40:22.687Z,101320.42
2018-07-30T08:42:51.436Z,101326.84
2018-07-30T08:45:20.420Z,101335.44
2018-07-30T08:47:49.108Z,101329.73
2018-07-30T08:50:18.186Z,101328.70
2018-07-30T08:52:48.121Z,101325.37
2018-07-30T08:55:16.863Z,101321.80
2018-07-30T08:57:45.611Z,101327.38
2018-07-30T09:00:15.263Z,101322.45
2018-07-30T09:02:44.230Z,101328.04
2018-07-30T09:05:13.492Z,101323.58
2018-07-30T09:07:42.592Z,101317.03
2018-07-30T09:10:11.313Z,101319.08
2018-07-30T09:12:40.388Z,101323.33
2018-07-30T09:15:09.185Z,101325.98
2018-07-30T09:17:37.943Z,101325.72
2018-07-30T09:20:07.161Z,101324.41
2018-07-30T09:22:36.668Z,101325.42
2018-07-30T09:25:05.397Z,101328.33
2018-07-30T09:27:34.835Z,101323.43
2018-07-30T09:30:03.676Z,101325.33
2018-07-30T09:32:32.511Z,101320.91
2018-07-30T09:35:01.639Z,101324.98
2018-07-30T09:37:30.351Z,101327.52
2018-07-30T09:39:59.091Z,101327.28
2018-07-30T09:42:28.096Z,101335.50
2018-07-30T09:44:56.917Z,101329.88
2018-07-30T09:47:25.987Z,101334.63
2018-07-30T09:49:54.804Z,101327.89
2018-07-30T09:52:23.583Z,101331.06
2018-07-30T09:54:52.446Z,101336.67
2018-07-30T09:57:21.159Z,101326.86
2018-07-30T09:59:49.903Z,101331.51
2018-07-30T10:02:18.679Z,101326.13
2018-07-30T10:04:47.760Z,101328.11
2018-07-30T10:07:16.547Z,101313.98
2018-07-30T10:09:45.338Z,101310.55
2018-07-30T10:12:14.062Z,101301.73
2018-07-30T10:14:43.460Z,101310.45
2018-07-30T10:17:13.394Z,101308.33
2018-07-30T10:19:42.452Z,101303.16
2018-07-30T10:22:11.485Z,101300.15
2018-07-30T10:24:40.530Z,101306.67
2018-07-30T10:27:09.280Z,101302.10
2018-07-30T10:29:38.257Z,101304.16
2018-07-30T10:32:07.253Z,101309.11
2018-07-30T10:34:36.125Z,101310.21
2018-07-30T10:37:05.282Z,101293.88
2018-07-30T10:39:34.015Z,101298.75
2018-07-30T10:42:02.962Z,101298.70
2018-07-30T10:44:32.074Z,101293.64
2018-07-30T10:47:01.125Z,101299.35
2018-07-30T10:49:29.868Z,101298.08
2018-07-30T10:51:58.910Z,101290.98
2018-07-30T10:54:28.286Z,101297.61
2018-07-30T10:56:57.030Z,101295.45
2018-07-30T10:59:25.834Z,101294.25
2018-07-30T11:01:54.577Z,101294.45
2018-07-30T11:04:23.865Z,101289.66
2018-07-30T11:06:52.985Z,101289.97
2018-07-30T11:09:21.735Z,101293.23
2018-07-30T11:11:50.708Z,101287.37
2018-07-30T11:14:19.962Z,101283.92
2018-07-30T11:16:48.758Z,101282.62
2018-07-30T11:19:17.477Z,101285.61
2018-07-30T11:21:46.825Z,101279.25
2018-07-30T11:24:15.599Z,101277.15
2018-07-30T11:26:44.888Z,101273.74
2018-07-30T11:29:13.928Z,101275.84
2018-07-30T11:31:42.980Z,101276.69
2018-07-30T11:34:11.949Z,101267.25
2018-07-30T11:36:40.675Z,101269.66
2018-07-30T11:39:11.421Z,101264.48
2018-07-30T11:41:40.507Z,101265.80
2018-07-30T11:44:10.112Z,101264.80
2018-07-30T11:46:39.832Z,101257.05
2018-07-30T11:49:08.829Z,101260.91
2018-07-30T11:51:38.101Z,101261.10
2018-07-30T11:54:06.820Z,101262.71
2018-07-30T11:56:35.562Z,101264.88
2018-07-30T11:59:04.646Z,101259.86
2018-07-30T12:01:33.587Z,101257.07
2018-07-30T12:04:02.360Z,101252.06
2018-07-30T12:06:31.281Z,101251.23
2018-07-30T12:09:00.091Z,101254.78
2018-07-30T12:11:28.796Z,101256.97
2018-07-30T12:13:57.588Z,101251.47
2018-07-30T12:16:27.780Z,101257.13
2018-07-30T12:18:57.046Z,101255.84
2018-07-30T12:21:26.021Z,101250.25
2018-07-30T12:23:54.723Z,101255.97
2018-07-30T12:26:23.407Z,101256.69
2018-07-30T12:28:52.115Z,101250.02
2018-07-30T12:31:21.396Z,101258.42
2018-07-30T12:33:50.194Z,101256.78
2018-07-30T12:36:18.966Z,101249.89
2018-07-30T12:38:47.947Z,101254.14
2018-07-30T12:41:17.167Z,101253.05
2018-07-30T12:43:48.822Z,101251.23
2018-07-30T12:46:17.588Z,101251.71
2018-07-30T12:48:46.585Z,101245.34
2018-07-30T12:51:15.542Z,101243.85
2018-07-30T12:53:44.750Z,101249.98
2018-07-30T12:56:13.705Z,101245.94
2018-07-30T12:58:42.414Z,101242.12
2018-07-30T13:01:11.421Z,101241.86
2018-07-30T13:03:40.198Z,101240.48
2018-07-30T13:06:09.489Z,101244.69
2018-07-30T13:08:38.177Z,101233.13
2018-07-30T13:11:07.133Z,101244.19
2018-07-30T13:13:36.374Z,101244.72
2018-07-30T13:16:05.400Z,101226.09
2018-07-30T13:18:34.545Z,101229.31
2018-07-30T13:21:03.292Z,101235.91
2018-07-30T13:23:32.000Z,101225.14
2018-07-30T13:26:01.043Z,101230.80
2018-07-30T13:28:29.789Z,101219.30
2018-07-30T13:30:58.903Z,101218.33
2018-07-30T13:33:27.656Z,101215.24
2018-07-30T13:35:56.393Z,101222.39
2018-07-30T13:38:25.124Z,101217.64
2018-07-30T13:40:53.859Z,101216.05
2018-07-30T13:43:22.851Z,101212.56
2018-07-30T13:45:51.882Z,101221.03
2018-07-30T13:48:20.645Z,101219.58
2018-07-30T13:50:50.295Z,101222.72
2018-07-30T13:53:19.018Z,101224.36
2018-07-30T13:55:48.187Z,101221.03
2018-07-30T13:58:17.213Z,101214.52
2018-07-30T14:00:45.999Z,101210.34
2018-07-30T14:03:15.086Z,101223.03
2018-07-30T14:05:43.821Z,101222.56
2018-07-30T14:08:12.532Z,101207.77
2018-07-30T14:10:41.293Z,101209.69
2018-07-30T14:13:09.981Z,101207.30
2018-07-30T14:15:39.012Z,101207.56
2018-07-30T14:18:08.087Z,101209.29
2018-07-30T14:20:36.827Z,101208.41
2018-07-30T14:23:06.061Z,101207.59
2018-07-30T14:25:34.788Z,101216.17
2018-07-30T14:28:03.975Z,101211.15
2018-07-30T14:30:33.273Z,101208.88
2018-07-30T14:33:02.701Z,101204.02
2018-07-30T14:35:31.789Z,101192.72
2018-07-30T14:38:00.533Z,101196.55
2018-07-30T14:40:29.279Z,101197.71
2018-07-30T14:42:58.299Z,101192.09
2018-07-30T14:45:27.045Z,101192.08
2018-07-30T14:47:56.109Z,101194.38
2018-07-30T14:50:24.823Z,101187.88
2018-07-30T14:52:53.853Z,101181.44
2018-07-30T14:55:22.720Z,101173.28
2018-07-30T14:57:51.482Z,101175.07
2018-07-30T15:00:20.186Z,101174.45
2018-07-30T15:02:48.941Z,101180.52
2018-07-30T15:05:21.081Z,101174.34
2018-07-30T15:07:50.241Z,101177.80
2018-07-30T15:10:19.276Z,101171.28
2018-07-30T15:12:48.011Z,101174.73
2018-07-30T15:15:17.088Z,101169.03
2018-07-30T15:17:45.925Z,101168.31
2018-07-30T15:20:21.051Z,101161.70
2018-07-30T15:22:50.089Z,101161.61
2018-07-30T15:25:18.822Z,101161.34
2018-07-30T15:27:47.752Z,101160.20
2018-07-30T15:30:16.474Z,101158.84
2018-07-30T15:32:45.515Z,101156.72
2018-07-30T15:35:14.687Z,101158.08
2018-07-30T15:37:43.452Z,101157.75
2018-07-30T15:40:12.515Z,101163.72
2018-07-30T15:42:41.768Z,101157.80
2018-07-30T15:45:10.756Z,101166.67
2018-07-30T15:47:39.721Z,101171.78
2018-07-30T15:50:08.674Z,101170.66
2018-07-30T15:52:37.806Z,101164.42
2018-07-30T15:55:06.635Z,101164.34
2018-07-30T15:57:35.980Z,101160.40
2018-07-30T16:00:05.605Z,101156.64
2018-07-30T16:02:34.523Z,101162.47
2018-07-30T16:07:32.350Z,101156.50
2018-07-30T16:12:29.859Z,101153.77
2018-07-30T16:14:58.646Z,101151.42
2018-07-30T16:17:27.745Z,101151.23
2018-07-30T16:19:56.782Z,101149.66
2018-07-30T16:22:25.605Z,101146.34
2018-07-30T16:24:54.861Z,101148.41
2018-07-30T16:27:23.545Z,101141.63
2018-07-30T16:29:52.238Z,101151.03
2018-07-30T16:32:21.333Z,101146.06
2018-07-30T16:34:50.070Z,101142.45
2018-07-30T16:37:18.799Z,101151.71
2018-07-30T16:39:47.869Z,101146.11
2018-07-30T16:42:17.015Z,101153.66
2018-07-30T16:44:46.161Z,101144.80
2018-07-30T16:47:15.079Z,101143.72
2018-07-30T16:49:43.859Z,101148.93
2018-07-30T16:52:12.616Z,101150.22
2018-07-30T16:54:41.375Z,101147.95
2018-07-30T16:57:10.187Z,101148.91
2018-07-30T16:59:39.213Z,101140.62
2018-07-30T17:02:07.916Z,101153.20
2018-07-30T17:04:36.611Z,101151.78
2018-07-30T17:07:05.825Z,101158.57
2018-07-30T17:09:34.550Z,101153.39
2018-07-30T17:12:03.259Z,101155.42
2018-07-30T17:14:31.981Z,101152.62
2018-07-30T17:17:01.005Z,101151.83
2018-07-30T17:19:30.011Z,101154.47
2018-07-30T17:21:59.087Z,101157.73
2018-07-30T17:24:27.831Z,101169.02
2018-07-30T17:26:56.576Z,101158.81
2018-07-30T17:29:25.362Z,101161.14
2018-07-30T17:31:54.462Z,101164.72
2018-07-30T17:34:23.399Z,101160.29
2018-07-30T17:36:52.392Z,101160.30
2018-07-30T17:39:21.814Z,101158.83
2018-07-30T17:41:50.851Z,101158.05
2018-07-30T17:44:19.683Z,101165.06
2018-07-30T17:46:49.231Z,101156.10
2018-07-30T17:49:17.950Z,101160.02
2018-07-30T17:51:47.154Z,101162.55
2018-07-30T17:54:16.226Z,101154.86
2018-07-30T17:56:44.974Z,101148.59
2018-07-30T17:59:13.967Z,101147.81
2018-07-30T18:01:42.969Z,101141.84
2018-07-30T18:04:11.905Z,101144.83
2018-07-30T18:06:40.883Z,101145.47
2018-07-30T18:09:10.370Z,101142.95
2018-07-30T18:11:39.614Z,101137.88
2018-07-30T18:14:08.456Z,101138.48
2018-07-30T18:16:37.413Z,101139.89
2018-07-30T18:19:06.423Z,101144.55
2018-07-30T18:21:35.625Z,101142.37
2018-07-30T18:24:04.651Z,101138.57
2018-07-30T18:26:33.742Z,101141.38
2018-07-30T18:29:02.776Z,101137.45
2018-07-30T18:31:31.867Z,101136.63
2018-07-30T18:34:00.920Z,101138.17
2018-07-30T18:36:30.025Z,101136.41
2018-07-30T18:38:58.726Z,101139.79
2018-07-30T18:41:27.740Z,101135.98
2018-07-30T18:43:57.059Z,101139.25
2018-07-30T18:46:25.800Z,101134.80
2018-07-30T18:48:54.487Z,101135.67
2018-07-30T18:51:23.507Z,101146.09
2018-07-30T18:53:52.609Z,101151.44
2018-07-30T18:56:21.916Z,101155.67
2018-07-30T18:58:51.150Z,101156.96
2018-07-30T19:01:20.184Z,101164.50
2018-07-30T19:03:49.584Z,101170.91
2018-07-30T19:06:18.577Z,101170.64
2018-07-30T19:08:47.254Z,101173.02
2018-07-30T19:11:16.001Z,101178.68
2018-07-30T19:13:45.039Z,101179.48
2018-07-30T19:16:13.981Z,101177.33
2018-07-30T19:18:42.679Z,101177.08
2018-07-30T19:21:11.717Z,101183.83
2018-07-30T19:23:40.464Z,101186.51
2018-07-30T19:26:09.468Z,101187.10
2018-07-30T19:28:38.798Z,101189.39
2018-07-30T19:31:08.041Z,101195.31
2018-07-30T19:33:36.775Z,101194.54
2018-07-30T19:36:05.656Z,101195.97
2018-07-30T19:38:34.418Z,101196.63
2018-07-30T19:41:03.359Z,101198.47
2018-07-30T19:43:32.079Z,101192.08
2018-07-30T19:46:00.809Z,101192.42
2018-07-30T19:48:29.542Z,101197.09
2018-07-30T19:50:58.722Z,101201.66
2018-07-30T19:53:27.434Z,101198.69
2018-07-30T19:55:56.190Z,101206.14
2018-07-30T19:58:25.854Z,101204.79
2018-07-30T20:00:54.315Z,101205.45
2018-07-30T20:03:23.562Z,101208.36
2018-07-30T20:05:52.586Z,101203.77
2018-07-30T20:08:21.808Z,101206.35
2018-07-30T20:10:50.612Z,101202.20
2018-07-30T20:13:19.739Z,101198.05
2018-07-30T20:15:51.513Z,101197.75
2018-07-30T20:18:20.274Z,101195.52
2018-07-30T20:20:49.081Z,101193.53
2018-07-30T20:23:17.881Z,101198.47
2018-07-30T20:25:46.631Z,101197.62
2018-07-30T20:28:15.359Z,101196.20
2018-07-30T20:30:44.217Z,101193.36
2018-07-30T20:33:12.909Z,101191.54
2018-07-30T20:35:41.752Z,101197.11
2018-07-30T20:38:11.382Z,101199.31
2018-07-30T20:40:40.057Z,101194.80
2018-07-30T20:43:09.276Z,101199.36
2018-07-30T20:45:37.962Z,101199.66
2018-07-30T20:48:06.666Z,101202.63
2018-07-30T20:50:35.967Z,101201.78
2018-07-30T20:53:04.700Z,101203.86
2018-07-30T20:55:33.937Z,101209.80
2018-07-30T20:58:03.251Z,101210.12
2018-07-30T21:00:31.949Z,101213.37
2018-07-30T21:03:01.476Z,101211.86
2018-07-30T21:05:32.772Z,101217.91
2018-07-30T21:08:02.087Z,101217.20
2018-07-30T21:10:30.854Z,101225.18
2018-07-30T21:12:59.577Z,101234.75
2018-07-30T21:15:29.705Z,101233.74
2018-07-30T21:17:58.492Z,101229.68
2018-07-30T21:20:27.262Z,101230.97
2018-07-30T21:22:55.985Z,101229.04
2018-07-30T21:25:24.726Z,101228.92
2018-07-30T21:27:53.595Z,101228.98
2018-07-30T21:30:22.815Z,101225.66
2018-07-30T21:32:51.730Z,101228.25
2018-07-30T21:35:21.824Z,101227.32
2018-07-30T21:37:50.693Z,101233.33
2018-07-30T21:40:19.632Z,101229.59
2018-07-30T21:42:49.022Z,101236.59
2018-07-30T21:45:18.027Z,101237.28
2018-07-30T21:47:46.958Z,101232.34
2018-07-30T21:50:16.705Z,101231.81
2018-07-30T21:52:45.788Z,101241.83
2018-07-30T21:55:14.590Z,101240.30
2018-07-30T21:57:43.445Z,101247.11
2018-07-30T22:00:15.011Z,101250.12
2018-07-30T22:02:44.975Z,101259.09
2018-07-30T22:05:16.127Z,101258.13
2018-07-30T22:07:45.758Z,101257.37
2018-07-30T22:10:14.613Z,101271.94
2018-07-30T22:12:43.360Z,101264.65
2018-07-30T22:15:12.547Z,101263.87
2018-07-30T22:17:41.511Z,101266.64
2018-07-30T22:20:10.232Z,101265.66
2018-07-30T22:22:38.993Z,101268.63
2018-07-30T22:25:07.946Z,101266.08
2018-07-30T22:27:36.772Z,101268.06
2018-07-30T22:30:07.798Z,101277.41
2018-07-30T22:32:36.850Z,101276.01
2018-07-30T22:35:06.695Z,101278.40
2018-07-30T22:37:35.429Z,101286.34
2018-07-30T22:40:04.607Z,101288.70
2018-07-30T22:42:33.457Z,101283.35
2018-07-30T22:45:02.212Z,101288.31
2018-07-30T22:47:30.938Z,101280.18
2018-07-30T22:49:59.812Z,101279.77
2018-07-30T22:52:28.653Z,101274.78
2018-07-30T22:54:57.798Z,101278.73
2018-07-30T22:57:26.597Z,101274.18
2018-07-30T22:59:55.460Z,101284.69
2018-07-30T23:02:24.277Z,101287.86
2018-07-30T23:04:53.260Z,101292.58
2018-07-30T23:07:22.490Z,101295.55
2018-07-30T23:09:51.520Z,101301.63
2018-07-30T23:12:20.540Z,101298.78
2018-07-30T23:14:49.606Z,101295.14
2018-07-30T23:17:18.667Z,101292.50
2018-07-30T23:19:47.753Z,101295.56
2018-07-30T23:22:16.481Z,101292.94
2018-07-30T23:24:45.817Z,101290.08
2018-07-30T23:27:14.597Z,101299.10
2018-07-30T23:29:43.356Z,101294.27
2018-07-30T23:32:12.077Z,101286.48
2018-07-30T23:34:40.817Z,101284.28
2018-07-30T23:37:09.612Z,101292.98
2018-07-30T23:39:38.388Z,101291.16
2018-07-30T23:42:08.404Z,101287.36
2018-07-30T23:44:38.683Z,101289.88
2018-07-30T23:47:08.507Z,101295.80
2018-07-30T23:49:38.627Z,101296.78
2018-07-30T23:52:09.475Z,101295.28
2018-07-30T23:54:39.624Z,101281.78
2018-07-30T23:57:09.396Z,101288.23
2018-07-30T23:59:39.791Z,101294.71
